Bigelow, Arkansas
Current Conditions -  °F | °C
As of 9:58 AM on Thursday 27 Nov 2014 (Local Time) from KLRF Reporting Station
Few Clouds Few Clouds  
Wind Chill: 38°   Ceiling: Unl
Heat Index: 41°   Visibility: 10mi
Dew Point: 26°   Wind: 5mph
Humidity: 55%   Direction: 60°ENE
Pressure: 30.55"   Gusts: NA
Location:  35°N, 92.63°W
Report Text: KLRF 271558Z AUTO 06004KT 10SM FEW034 05/M04 A3055 RMK AO2 SLP350 T00491036 $
Loading
Personal Weather Stations






























Interactive Weather Map New forecast layout! Learn more

10-Day Weather Forecast

Advertisements
Track Severe Weather on mobile